Time;durP1;ratioP1;P1;durP2;ratioP2;P2;SDS_P1;SDS_P2;PMS_P1;PMS_P2;Temp;Humidity;BMP_temperature;BMP_pressure;BME280_temperature;BME280_humidity;BME280_pressure;Samples;Min_cycle;Max_cycle;Signal;HPM_P1;HPM_P2
2023/09/30 00:00:15;;;;;;;14.25;8.98;;;;;;;11.28;100.00;102314.13;5028508;28;20295;-65
2023/09/30 00:02:40;;;;;;;13.55;8.75;;;;;;;11.26;100.00;102320.06;5028589;28;20029;-64
2023/09/30 00:05:06;;;;;;;14.75;9.77;;;;;;;11.25;100.00;102308.78;5028473;28;20400;-65
2023/09/30 00:07:32;;;;;;;11.85;9.50;;;;;;;11.25;100.00;102313.97;5027540;28;20065;-64
2023/09/30 00:09:58;;;;;;;14.80;10.65;;;;;;;11.28;100.00;102323.59;5027634;28;20156;-65
2023/09/30 00:12:23;;;;;;;15.27;12.73;;;;;;;11.26;100.00;102318.31;5028451;28;20029;-65
2023/09/30 00:14:48;;;;;;;17.67;14.68;;;;;;;11.26;100.00;102313.13;5028105;28;20542;-65
2023/09/30 00:17:14;;;;;;;16.75;13.50;;;;;;;11.27;100.00;102314.94;5027662;28;20018;-64
2023/09/30 00:19:40;;;;;;;18.08;13.82;;;;;;;11.31;100.00;102322.88;5028670;28;20033;-64
2023/09/30 00:22:05;;;;;;;17.50;13.40;;;;;;;11.35;100.00;102320.50;5027763;28;20021;-65
2023/09/30 00:24:31;;;;;;;16.15;13.25;;;;;;;11.35;100.00;102323.09;5027678;28;20025;-64
2023/09/30 00:26:56;;;;;;;17.02;13.52;;;;;;;11.37;100.00;102325.81;5027964;28;20374;-65
2023/09/30 00:29:21;;;;;;;15.48;13.13;;;;;;;11.39;100.00;102331.94;5027962;28;20374;-64
2023/09/30 00:31:47;;;;;;;16.38;12.52;;;;;;;11.42;100.00;102326.94;5027677;28;20025;-65
2023/09/30 00:34:13;;;;;;;14.25;11.57;;;;;;;11.43;100.00;102318.31;5027505;28;20056;-64
2023/09/30 00:36:38;;;;;;;15.48;11.15;;;;;;;11.43;100.00;102305.34;5027998;28;20048;-64
2023/09/30 00:39:04;;;;;;;14.25;11.30;;;;;;;11.43;100.00;102323.53;5027580;28;20324;-64
2023/09/30 00:41:29;;;;;;;14.70;11.43;;;;;;;11.46;100.00;102343.56;5027808;28;20037;-64
2023/09/30 00:43:54;;;;;;;14.60;10.43;;;;;;;11.49;100.00;102344.63;5027268;28;20045;-65
2023/09/30 00:46:31;;;;;;;14.98;10.68;;;;;;;11.50;100.00;102343.78;5027403;28;20036;-64
2023/09/30 00:48:58;;;;;;;11.75;9.35;;;;;;;11.49;100.00;102349.81;5027484;28;20132;-64
2023/09/30 00:51:24;;;;;;;14.57;10.38;;;;;;;11.47;100.00;102338.44;5027831;28;20061;-64
2023/09/30 00:53:51;;;;;;;14.07;10.35;;;;;;;11.47;100.00;102330.66;5027269;28;20071;-64
2023/09/30 00:56:18;;;;;;;12.25;9.35;;;;;;;11.46;100.00;102318.47;5027235;28;20029;-64
2023/09/30 00:58:45;;;;;;;14.38;10.68;;;;;;;11.45;100.00;102323.59;5025502;28;20052;-64
2023/09/30 01:01:10;;;;;;;13.15;9.88;;;;;;;11.44;100.00;102334.81;5027385;28;20037;-64
2023/09/30 01:03:37;;;;;;;14.10;9.65;;;;;;;11.45;100.00;102336.56;5026762;28;20071;-65
2023/09/30 01:06:02;;;;;;;14.15;9.90;;;;;;;11.41;100.00;102336.41;5027296;28;20029;-65
2023/09/30 01:08:28;;;;;;;11.35;9.88;;;;;;;11.41;100.00;102343.31;5027857;28;20053;-65
2023/09/30 01:10:55;;;;;;;13.55;9.23;;;;;;;11.41;100.00;102345.91;5027620;28;20462;-65
2023/09/30 01:13:20;;;;;;;13.30;10.02;;;;;;;11.39;100.00;102342.34;5026937;28;20086;-64
2023/09/30 01:15:47;;;;;;;12.43;9.48;;;;;;;11.38;100.00;102350.94;5027454;28;20266;-64
2023/09/30 01:18:12;;;;;;;11.55;9.70;;;;;;;11.34;100.00;102354.19;5026954;28;20025;-64
2023/09/30 01:20:37;;;;;;;13.05;9.68;;;;;;;11.33;100.00;102358.50;5027120;28;20040;-65
2023/09/30 01:23:03;;;;;;;10.95;9.63;;;;;;;11.32;100.00;102356.69;5026410;28;20021;-65
2023/09/30 01:25:29;;;;;;;12.30;8.48;;;;;;;11.29;100.00;102357.44;5027074;28;20025;-64
2023/09/30 01:27:54;;;;;;;12.45;9.48;;;;;;;11.31;100.00;102372.19;5027286;28;20021;-65
2023/09/30 01:30:22;;;;;;;13.23;9.15;;;;;;;11.31;100.00;102382.56;5026903;28;20060;-64
2023/09/30 01:32:48;;;;;;;10.40;8.80;;;;;;;11.26;100.00;102379.75;5026414;28;20108;-65
2023/09/30 01:35:13;;;;;;;13.15;8.95;;;;;;;11.24;100.00;102389.13;5026972;28;20142;-64
2023/09/30 01:37:38;;;;;;;12.00;8.57;;;;;;;11.19;100.00;102378.50;5027386;28;20293;-64
2023/09/30 01:40:07;;;;;;;13.80;8.65;;;;;;;11.13;100.00;102372.97;5027301;28;20129;-64
2023/09/30 01:42:33;;;;;;;14.52;9.55;;;;;;;11.12;100.00;102376.38;5027152;28;20518;-65
2023/09/30 01:44:58;;;;;;;10.32;8.73;;;;;;;11.10;100.00;102373.69;5026160;28;20025;-64
2023/09/30 01:47:23;;;;;;;10.98;9.07;;;;;;;11.09;100.00;102358.94;5026427;28;20025;-64
2023/09/30 01:49:49;;;;;;;12.60;9.68;;;;;;;11.05;100.00;102352.69;5027112;28;20542;-64
2023/09/30 01:52:14;;;;;;;14.70;9.93;;;;;;;11.05;100.00;102349.22;5026775;28;20033;-65
2023/09/30 01:54:39;;;;;;;13.13;9.57;;;;;;;11.01;100.00;102349.88;5026621;28;20033;-64
2023/09/30 01:57:05;;;;;;;10.52;8.95;;;;;;;10.99;100.00;102352.34;5026318;28;20057;-64
2023/09/30 01:59:30;;;;;;;11.55;9.32;;;;;;;10.97;100.00;102353.09;5026688;28;20037;-65
2023/09/30 02:01:56;;;;;;;13.05;10.05;;;;;;;10.96;100.00;102357.38;5026751;28;20025;-65
2023/09/30 02:04:21;;;;;;;10.13;8.80;;;;;;;10.97;100.00;102347.91;5027343;28;20067;-65
2023/09/30 02:06:46;;;;;;;12.23;10.05;;;;;;;11.00;100.00;102351.56;5026182;28;20097;-64
2023/09/30 02:09:12;;;;;;;13.00;10.00;;;;;;;11.00;100.00;102348.97;5026961;28;20053;-65
2023/09/30 02:11:38;;;;;;;13.40;9.25;;;;;;;11.02;100.00;102356.84;5026989;28;20187;-64
2023/09/30 02:14:04;;;;;;;11.93;9.95;;;;;;;11.03;100.00;102358.59;5026340;28;20030;-65
2023/09/30 02:16:29;;;;;;;17.13;10.27;;;;;;;11.05;100.00;102360.47;5026807;28;20108;-64
2023/09/30 02:18:55;;;;;;;16.30;10.85;;;;;;;11.08;100.00;102369.25;5026674;28;20116;-65
2023/09/30 02:21:21;;;;;;;16.48;9.88;;;;;;;11.09;100.00;102378.81;5026416;28;20041;-65
2023/09/30 02:23:48;;;;;;;15.52;11.00;;;;;;;11.09;100.00;102369.31;5026698;28;20035;-64
2023/09/30 02:26:17;;;;;;;15.85;11.60;;;;;;;11.09;100.00;102373.63;5026004;28;20039;-64
2023/09/30 02:28:42;;;;;;;14.90;9.82;;;;;;;11.09;100.00;102360.66;5026539;28;20388;-65
2023/09/30 02:31:07;;;;;;;15.75;11.27;;;;;;;11.09;100.00;102358.06;5026566;28;20038;-64
2023/09/30 02:33:37;;;;;;;15.02;9.98;;;;;;;11.08;100.00;102359.75;5027917;28;20470;-65
2023/09/30 02:36:05;;;;;;;13.63;10.77;;;;;;;11.08;100.00;102357.16;5029781;28;20485;-65
2023/09/30 02:38:31;;;;;;;14.75;10.70;;;;;;;11.03;100.00;102348.22;5029972;28;20029;-64
2023/09/30 02:40:56;;;;;;;12.80;9.77;;;;;;;11.02;100.00;102365.50;5029443;28;20025;-65
2023/09/30 02:43:21;;;;;;;14.00;10.15;;;;;;;11.01;100.00;102371.50;5029677;28;20029;-64
2023/09/30 02:45:47;;;;;;;14.20;9.63;;;;;;;10.99;100.00;102364.44;5029734;28;20025;-64
2023/09/30 02:48:13;;;;;;;16.02;10.18;;;;;;;10.94;100.00;102353.81;5029405;28;20449;-65
2023/09/30 02:50:40;;;;;;;11.48;9.48;;;;;;;10.92;100.00;102358.00;5029522;28;20072;-65
2023/09/30 02:53:05;;;;;;;14.38;9.93;;;;;;;10.91;100.00;102356.25;5029363;28;20048;-64
2023/09/30 02:55:31;;;;;;;12.05;10.32;;;;;;;10.91;100.00;102356.25;5029616;28;20049;-65
2023/09/30 02:57:57;;;;;;;12.55;9.65;;;;;;;10.89;100.00;102340.59;5029673;28;20025;-65
2023/09/30 03:02:54;;;;;;;14.63;10.65;;;;;;;10.88;100.00;102350.91;5029577;28;20071;-65
2023/09/30 03:05:20;;;;;;;15.23;10.50;;;;;;;10.89;100.00;102344.88;5029520;28;20029;-65
2023/09/30 03:07:46;;;;;;;11.85;10.52;;;;;;;10.89;100.00;102352.66;5029901;28;20443;-65
2023/09/30 03:10:13;;;;;;;13.60;10.80;;;;;;;10.90;100.00;102362.25;5029558;28;20033;-65
2023/09/30 03:12:38;;;;;;;17.00;11.10;;;;;;;10.90;100.00;102357.94;5029044;28;20087;-64
2023/09/30 03:15:04;;;;;;;13.02;10.93;;;;;;;10.91;100.00;102353.66;5029087;28;20033;-65
2023/09/30 03:17:33;;;;;;;16.05;11.07;;;;;;;10.92;100.00;102352.81;5029546;28;20018;-65
2023/09/30 03:19:58;;;;;;;17.95;11.95;;;;;;;10.95;100.00;102354.72;5029449;28;20029;-65
2023/09/30 03:22:25;;;;;;;17.65;11.43;;;;;;;10.95;100.00;102366.00;5028567;28;20034;-65
2023/09/30 03:24:51;;;;;;;15.07;11.20;;;;;;;10.98;100.00;102360.06;5029524;28;20032;-65
2023/09/30 03:27:16;;;;;;;15.48;10.75;;;;;;;10.96;100.00;102349.59;5028904;28;20030;-65
2023/09/30 03:29:41;;;;;;;15.50;10.63;;;;;;;10.95;100.00;102340.03;5028647;28;20025;-65
2023/09/30 03:32:06;;;;;;;16.88;11.85;;;;;;;10.95;100.00;102340.03;5028798;28;20029;-64
2023/09/30 03:34:36;;;;;;;15.70;11.40;;;;;;;10.94;100.00;102333.06;5029168;28;20100;-65
2023/09/30 03:37:02;;;;;;;14.18;11.48;;;;;;;10.95;100.00;102329.69;5028687;28;20116;-65
2023/09/30 03:39:27;;;;;;;13.35;11.50;;;;;;;10.96;100.00;102335.72;5028836;28;20116;-65
2023/09/30 03:41:56;;;;;;;15.88;13.27;;;;;;;10.97;100.00;102329.75;5028698;28;20038;-65
2023/09/30 03:44:23;;;;;;;16.65;12.35;;;;;;;10.97;100.00;102338.44;5028877;28;20053;-65
2023/09/30 03:46:49;;;;;;;16.48;12.65;;;;;;;10.96;100.00;102335.72;5029187;28;20041;-65
2023/09/30 03:49:15;;;;;;;18.08;12.38;;;;;;;10.98;100.00;102344.50;5028909;28;20481;-65
2023/09/30 03:51:40;;;;;;;16.17;11.25;;;;;;;10.98;100.00;102348.00;5028207;28;20037;-65
2023/09/30 03:54:06;;;;;;;15.43;11.15;;;;;;;10.95;100.00;102345.25;5028909;28;20033;-65
2023/09/30 03:56:31;;;;;;;17.00;11.55;;;;;;;10.91;100.00;102345.88;5028740;28;20028;-65
2023/09/30 03:58:56;;;;;;;17.40;10.48;;;;;;;10.87;100.00;102341.31;5028258;28;20504;-65
2023/09/30 04:01:23;;;;;;;14.65;10.73;;;;;;;10.85;100.00;102343.81;5028616;28;20017;-65
2023/09/30 04:03:48;;;;;;;15.35;11.40;;;;;;;10.84;100.00;102341.16;5028593;28;20560;-65
2023/09/30 04:06:14;;;;;;;18.30;11.60;;;;;;;10.83;100.00;102335.06;5028472;28;20021;-65
2023/09/30 04:08:40;;;;;;;16.23;12.10;;;;;;;10.86;100.00;102339.53;5028422;28;20112;-65
2023/09/30 04:11:05;;;;;;;17.17;12.10;;;;;;;10.88;100.00;102343.13;5028500;28;20056;-65
2023/09/30 04:13:31;;;;;;;15.93;11.13;;;;;;;10.87;100.00;102341.31;5027707;28;20076;-65
2023/09/30 04:15:58;;;;;;;14.60;10.80;;;;;;;10.87;100.00;102342.22;5028034;28;20072;-65
2023/09/30 04:18:25;;;;;;;16.50;12.20;;;;;;;10.89;100.00;102350.06;5028364;28;20040;-65
2023/09/30 04:20:51;;;;;;;14.65;11.13;;;;;;;10.87;100.00;102347.41;5027861;28;20048;-65
2023/09/30 04:23:16;;;;;;;13.38;10.45;;;;;;;10.88;100.00;102343.13;5028207;28;20025;-65
2023/09/30 04:25:42;;;;;;;16.77;12.82;;;;;;;10.82;100.00;102335.88;5027480;28;20127;-65
2023/09/30 04:28:08;;;;;;;17.85;12.27;;;;;;;10.85;100.00;102332.59;5027993;28;20029;-65
2023/09/30 04:30:33;;;;;;;16.67;13.13;;;;;;;10.87;100.00;102336.13;5027859;28;20018;-65
2023/09/30 04:32:59;;;;;;;17.77;12.73;;;;;;;10.89;100.00;102344.88;5028175;28;20025;-65
2023/09/30 04:35:26;;;;;;;15.18;11.73;;;;;;;10.86;100.00;102344.72;5027085;28;20534;-65
2023/09/30 04:37:51;;;;;;;13.00;10.52;;;;;;;10.81;100.00;102349.66;5028263;28;20036;-65
2023/09/30 04:40:19;;;;;;;15.43;10.57;;;;;;;10.76;100.00;102352.00;5027910;28;20029;-65
2023/09/30 04:42:46;;;;;;;13.90;10.77;;;;;;;10.73;100.00;102359.59;5027931;28;20075;-64
2023/09/30 04:45:12;;;;;;;17.77;12.68;;;;;;;10.70;100.00;102359.44;5027966;28;20028;-65
2023/09/30 04:47:38;;;;;;;16.90;11.70;;;;;;;10.69;100.00;102358.53;5028091;28;20164;-65
2023/09/30 04:50:08;;;;;;;16.25;12.30;;;;;;;10.66;100.00;102362.66;5027040;28;20152;-65
2023/09/30 04:52:38;;;;;;;13.68;10.60;;;;;;;10.64;100.00;102359.09;5027943;28;20064;-64
2023/09/30 04:55:04;;;;;;;12.55;9.75;;;;;;;10.59;100.00;102361.44;5027335;28;20124;-65
2023/09/30 04:57:30;;;;;;;14.77;10.60;;;;;;;10.54;100.00;102368.06;5027115;28;20520;-65
2023/09/30 04:59:55;;;;;;;14.88;12.00;;;;;;;10.51;100.00;102370.44;5027650;28;20543;-65
2023/09/30 05:02:20;;;;;;;14.73;11.95;;;;;;;10.47;100.00;102363.28;5027768;28;20044;-65
2023/09/30 05:04:46;;;;;;;15.63;12.20;;;;;;;10.44;100.00;102361.41;5027227;28;20033;-65
2023/09/30 05:07:13;;;;;;;15.55;11.43;;;;;;;10.42;100.00;102373.38;5027715;28;20031;-65
2023/09/30 05:09:38;;;;;;;17.02;11.82;;;;;;;10.43;100.00;102375.19;5027503;28;20544;-65
2023/09/30 05:12:04;;;;;;;17.73;12.85;;;;;;;10.43;100.00;102377.78;5028052;28;20021;-65
2023/09/30 05:14:30;;;;;;;18.98;13.15;;;;;;;10.43;100.00;102380.38;5027285;28;20142;-65
2023/09/30 05:16:56;;;;;;;18.38;11.65;;;;;;;10.42;100.00;102378.56;5027133;28;20036;-65
2023/09/30 05:19:21;;;;;;;15.68;11.48;;;;;;;10.40;100.00;102374.97;5027435;28;20041;-65
2023/09/30 05:21:47;;;;;;;16.58;12.77;;;;;;;10.43;100.00;102375.19;5027148;28;20485;-65
2023/09/30 05:24:12;;;;;;;15.30;11.77;;;;;;;10.41;100.00;102377.69;5027052;28;20036;-66
2023/09/30 05:26:38;;;;;;;18.75;12.25;;;;;;;10.41;100.00;102385.47;5027023;28;20092;-65
2023/09/30 05:29:03;;;;;;;14.40;12.70;;;;;;;10.41;100.00;102388.06;5026542;28;20034;-65
2023/09/30 05:31:29;;;;;;;17.10;13.05;;;;;;;10.41;100.00;102377.69;5025157;28;20692;-65
2023/09/30 05:33:55;;;;;;;16.10;11.80;;;;;;;10.41;100.00;102387.16;5026034;28;20089;-65
2023/09/30 05:36:20;;;;;;;16.17;11.73;;;;;;;10.42;100.00;102376.88;5024834;28;20045;-65
2023/09/30 05:38:47;;;;;;;19.15;13.40;;;;;;;10.43;100.00;102380.38;5026067;28;20048;-65
2023/09/30 05:41:14;;;;;;;21.67;13.95;;;;;;;10.42;100.00;102384.66;5025890;28;20029;-65
2023/09/30 05:43:39;;;;;;;18.55;13.18;;;;;;;10.42;100.00;102395.03;5026710;28;20052;-65
2023/09/30 05:46:06;;;;;;;24.80;14.85;;;;;;;10.43;100.00;102396.78;5026834;28;20469;-65
2023/09/30 05:48:31;;;;;;;17.33;14.18;;;;;;;10.43;100.00;102390.72;5027094;28;20271;-65
2023/09/30 05:50:57;;;;;;;21.95;15.20;;;;;;;10.45;100.00;102399.50;5027527;28;20155;-65
2023/09/30 05:53:22;;;;;;;20.92;15.27;;;;;;;10.45;100.00;102391.72;5027083;28;20028;-65
2023/09/30 05:55:48;;;;;;;22.60;14.80;;;;;;;10.45;100.00;102394.31;5027101;28;20014;-65
2023/09/30 05:58:16;;;;;;;18.92;13.55;;;;;;;10.48;100.00;102389.34;5026690;28;20029;-65
2023/09/30 06:00:42;;;;;;;23.15;15.57;;;;;;;10.49;100.00;102398.00;5026328;28;20037;-65
2023/09/30 06:03:08;;;;;;;23.70;15.90;;;;;;;10.53;100.00;102398.25;5026645;28;20013;-65
2023/09/30 06:05:34;;;;;;;24.40;16.30;;;;;;;10.56;100.00;102403.63;5027005;28;20026;-65
2023/09/30 06:08:04;;;;;;;22.63;16.13;;;;;;;10.62;100.00;102402.16;5027885;28;20043;-65
2023/09/30 06:10:29;;;;;;;22.73;18.07;;;;;;;10.65;100.00;102397.19;5030987;28;20071;-65
2023/09/30 06:12:56;;;;;;;22.23;16.60;;;;;;;10.69;100.00;102404.31;5031183;28;20746;-65
2023/09/30 06:15:23;;;;;;;19.10;16.05;;;;;;;10.71;100.00;102399.19;5031153;28;20068;-65
2023/09/30 06:17:51;;;;;;;22.20;16.25;;;;;;;10.72;100.00;102399.28;5030672;28;20028;-65
2023/09/30 06:20:17;;;;;;;20.45;14.73;;;;;;;10.76;100.00;102395.16;5030295;28;20156;-64
2023/09/30 06:22:49;;;;;;;20.90;14.35;;;;;;;10.79;100.00;102395.38;5030485;28;20026;-65
2023/09/30 06:25:16;;;;;;;21.08;15.20;;;;;;;10.83;100.00;102399.88;5030285;28;20025;-65
2023/09/30 06:27:45;;;;;;;21.33;16.42;;;;;;;10.86;100.00;102392.31;5030233;28;20032;-65
2023/09/30 06:30:11;;;;;;;23.48;15.57;;;;;;;10.89;100.00;102395.06;5030571;28;20052;-65
2023/09/30 06:32:36;;;;;;;23.33;15.20;;;;;;;10.92;100.00;102391.72;5029555;28;20032;-65
2023/09/30 06:35:06;;;;;;;23.13;15.45;;;;;;;10.93;100.00;102398.72;5030605;28;20025;-65
2023/09/30 06:37:32;;;;;;;22.15;15.38;;;;;;;10.98;100.00;102396.38;5029988;28;20488;-65
2023/09/30 06:39:57;;;;;;;19.90;15.25;;;;;;;11.03;100.00;102401.00;5030291;28;20116;-65
2023/09/30 06:42:24;;;;;;;22.25;15.20;;;;;;;11.04;100.00;102405.38;5029576;28;20105;-65
2023/09/30 06:44:49;;;;;;;23.42;15.00;;;;;;;11.08;100.00;102396.06;5029927;28;20505;-65
2023/09/30 06:47:14;;;;;;;22.02;15.02;;;;;;;11.14;100.00;102395.50;5030109;28;20028;-65
2023/09/30 06:49:40;;;;;;;23.23;15.25;;;;;;;11.17;100.00;102403.47;5030114;28;20033;-64
2023/09/30 06:52:05;;;;;;;27.70;16.08;;;;;;;11.20;100.00;102407.94;5029728;28;20027;-65
2023/09/30 06:54:31;;;;;;;19.73;14.65;;;;;;;11.25;100.00;102412.56;5030223;28;20032;-65
2023/09/30 06:56:56;;;;;;;21.98;14.63;;;;;;;11.31;100.00;102421.50;5029072;28;20411;-64
2023/09/30 06:59:22;;;;;;;22.83;15.18;;;;;;;11.35;100.00;102426.06;5030048;28;20026;-64
2023/09/30 07:01:47;;;;;;;25.63;15.38;;;;;;;11.36;100.00;102431.31;5030061;28;20017;-65
2023/09/30 07:04:12;;;;;;;18.85;14.35;;;;;;;11.39;100.00;102452.25;5029996;28;20444;-65
2023/09/30 07:06:38;;;;;;;23.70;14.40;;;;;;;11.43;100.00;102448.13;5030082;28;20021;-65
2023/09/30 07:09:04;;;;;;;19.73;14.50;;;;;;;11.45;100.00;102445.59;5029721;28;20033;-64
2023/09/30 07:11:32;;;;;;;22.63;15.13;;;;;;;11.48;100.00;102456.13;5029639;28;20511;-65
2023/09/30 07:13:57;;;;;;;18.85;13.85;;;;;;;11.51;100.00;102459.78;5029789;28;20350;-65
2023/09/30 07:16:23;;;;;;;20.40;13.75;;;;;;;11.53;100.00;102454.72;5028993;28;20366;-65
2023/09/30 07:18:48;;;;;;;19.83;14.57;;;;;;;11.58;100.00;102454.94;5029178;28;20112;-65
2023/09/30 07:21:13;;;;;;;23.13;14.02;;;;;;;11.62;100.00;102454.31;5029736;28;20025;-64
2023/09/30 07:23:38;;;;;;;16.27;13.40;;;;;;;11.68;100.00;102448.53;5029818;28;20013;-65
2023/09/30 07:26:04;;;;;;;19.55;13.18;;;;;;;11.72;100.00;102446.19;5028992;28;20071;-65
2023/09/30 07:28:29;;;;;;;20.40;13.50;;;;;;;11.79;100.00;102464.69;5029742;28;20032;-65
2023/09/30 07:30:55;;;;;;;19.63;13.73;;;;;;;11.86;100.00;102479.78;5027537;28;20022;-65
2023/09/30 07:33:20;;;;;;;17.48;13.55;;;;;;;11.95;100.00;102493.25;5028963;28;20029;-65
2023/09/30 07:35:46;;;;;;;18.98;14.43;;;;;;;12.04;100.00;102499.75;5029017;28;20029;-65
2023/09/30 07:38:11;;;;;;;19.30;14.13;;;;;;;12.12;100.00;102501.09;5029609;28;20136;-65
2023/09/30 07:40:37;;;;;;;19.60;13.52;;;;;;;12.22;100.00;102511.16;5041090;28;20583;-64
2023/09/30 07:43:02;;;;;;;19.75;14.07;;;;;;;12.30;100.00;102514.16;5029443;28;20390;-65
2023/09/30 07:45:28;;;;;;;17.77;13.45;;;;;;;12.41;100.00;102512.06;5028572;28;20029;-64
2023/09/30 07:47:53;;;;;;;26.40;14.32;;;;;;;12.56;100.00;102511.97;5028646;28;20037;-65
2023/09/30 07:50:18;;;;;;;21.58;15.32;;;;;;;13.04;100.00;102503.00;5027992;28;20021;-65
2023/09/30 07:52:44;;;;;;;20.98;14.05;;;;;;;13.54;100.00;102491.47;5029140;28;20024;-65
2023/09/30 07:55:10;;;;;;;17.63;11.73;;;;;;;13.96;100.00;102495.06;5028893;28;20025;-65
2023/09/30 07:57:36;;;;;;;18.63;12.23;;;;;;;14.44;100.00;102498.84;5029314;28;20021;-64
2023/09/30 08:00:03;;;;;;;17.20;11.13;;;;;;;14.72;100.00;102494.75;5028561;28;20040;-64
2023/09/30 08:02:33;;;;;;;17.42;10.43;;;;;;;15.32;100.00;102498.03;5028694;28;20101;-65
2023/09/30 08:42:11;;;;;;;19.08;8.63;;;;;;;18.65;100.00;102489.22;5032391;27;20743;-68
2023/09/30 08:44:39;;;;;;;12.05;6.93;;;;;;;18.84;100.00;102474.78;5030692;28;20037;-68
2023/09/30 08:47:05;;;;;;;11.43;7.05;;;;;;;18.94;100.00;102475.91;5032686;28;20507;-69
2023/09/30 08:49:34;;;;;;;13.68;6.95;;;;;;;19.09;100.00;102472.72;5028847;28;20029;-69
2023/09/30 08:52:01;;;;;;;12.35;6.57;;;;;;;18.93;100.00;102475.00;5035232;28;20053;-69
2023/09/30 08:54:26;;;;;;;14.98;7.97;;;;;;;18.90;100.00;102472.31;5037691;28;20036;-69
2023/09/30 08:56:52;;;;;;;12.93;7.03;;;;;;;18.75;100.00;102480.72;5023997;28;20018;-69
2023/09/30 08:59:17;;;;;;;15.30;7.75;;;;;;;18.66;100.00;102480.50;5024246;28;20041;-69
2023/09/30 09:01:43;;;;;;;12.23;6.80;;;;;;;18.75;100.00;102474.56;5024578;28;20381;-68
2023/09/30 09:04:09;;;;;;;13.00;6.28;;;;;;;18.66;100.00;102481.38;5030160;28;20167;-69
2023/09/30 09:06:34;;;;;;;10.07;6.00;;;;;;;18.75;100.00;102485.97;5028858;28;20040;-66
2023/09/30 09:09:19;;;;;;;11.23;6.40;;;;;;;18.79;100.00;102487.81;5030949;28;20029;-69
2023/09/30 09:11:46;;;;;;;12.55;6.30;;;;;;;18.86;100.00;102499.34;5024363;28;20109;-69
2023/09/30 09:14:11;;;;;;;15.07;6.47;;;;;;;18.81;100.00;102501.00;5024589;28;20393;-69
2023/09/30 09:16:37;;;;;;;13.52;6.40;;;;;;;18.75;100.00;102503.44;5024829;28;20021;-70
2023/09/30 09:19:15;;;;;;;12.10;6.43;;;;;;;18.77;100.00;102517.50;5034266;28;20026;-69
2023/09/30 09:21:57;;;;;;;9.57;6.07;;;;;;;18.72;100.00;102513.06;5037708;28;20039;-68
2023/09/30 09:24:32;;;;;;;10.77;6.28;;;;;;;18.66;100.00;102515.50;5039383;28;20161;-69
2023/09/30 09:27:11;;;;;;;11.45;6.93;;;;;;;18.33;100.00;102526.94;5042130;28;20037;-69
2023/09/30 09:29:42;;;;;;;15.05;6.78;;;;;;;18.16;100.00;102526.47;5041012;28;20076;-69
2023/09/30 09:32:12;;;;;;;12.77;6.38;;;;;;;17.87;100.00;102530.03;5039590;28;20032;-69
2023/09/30 09:34:39;;;;;;;10.60;6.40;;;;;;;17.84;100.00;102532.56;5022406;28;20038;-69
2023/09/30 09:37:19;;;;;;;12.75;6.47;;;;;;;17.69;100.00;102547.00;5027894;28;20291;-69
2023/09/30 09:39:56;;;;;;;11.07;6.20;;;;;;;17.68;100.00;102542.63;5030298;28;20119;-69
2023/09/30 09:42:25;;;;;;;13.80;6.45;;;;;;;17.56;100.00;102534.41;5023746;28;20021;-68
2023/09/30 09:44:54;;;;;;;9.50;5.57;;;;;;;17.46;100.00;102539.34;5010306;28;20033;-69
2023/09/30 09:47:21;;;;;;;14.95;6.60;;;;;;;17.51;100.00;102542.09;5010592;28;20635;-69
2023/09/30 09:49:47;;;;;;;8.48;5.22;;;;;;;17.50;100.00;102535.97;5008669;28;20375;-68
2023/09/30 09:52:15;;;;;;;9.95;6.07;;;;;;;17.53;100.00;102535.19;5011012;28;20529;-69
2023/09/30 09:54:41;;;;;;;12.43;5.68;;;;;;;17.52;100.00;102541.28;5010619;28;20101;-69
2023/09/30 09:57:10;;;;;;;11.95;6.50;;;;;;;17.64;100.00;102544.25;5013173;28;20417;-69
2023/09/30 09:59:36;;;;;;;8.85;5.68;;;;;;;17.67;100.00;102548.69;5023456;28;20130;-69
2023/09/30 10:02:09;;;;;;;10.63;5.18;;;;;;;17.61;100.00;102546.75;5020032;28;20041;-69
2023/09/30 10:04:36;;;;;;;8.45;4.72;;;;;;;17.68;100.00;102534.75;5010904;28;20196;-69
2023/09/30 10:07:03;;;;;;;10.63;5.07;;;;;;;17.76;100.00;102538.47;5012981;28;20132;-68
2023/09/30 10:09:30;;;;;;;8.63;4.97;;;;;;;17.81;100.00;102546.47;5014806;28;20030;-69
2023/09/30 10:11:58;;;;;;;10.07;5.63;;;;;;;17.84;100.00;102556.16;5016781;28;20040;-68
2023/09/30 10:14:32;;;;;;;8.52;4.70;;;;;;;17.82;100.00;102553.50;5016431;28;20432;-69
2023/09/30 10:16:58;;;;;;;9.60;5.50;;;;;;;17.87;100.00;102558.88;5009337;28;20029;-69
2023/09/30 10:19:24;;;;;;;9.18;5.03;;;;;;;17.82;100.00;102569.22;5009704;28;20021;-69
2023/09/30 10:22:21;;;;;;;7.88;4.90;;;;;;;17.86;100.00;102565.84;5006249;28;20594;-68
2023/09/30 10:24:48;;;;;;;7.60;5.30;;;;;;;17.76;100.00;102563.78;5008013;28;20388;-69
2023/09/30 10:27:31;;;;;;;13.27;6.07;;;;;;;17.77;100.00;102555.09;5015844;28;20022;-68
2023/09/30 10:30:09;;;;;;;12.73;5.95;;;;;;;17.84;100.00;102548.31;5017101;28;20488;-69
2023/09/30 10:32:50;;;;;;;8.82;4.45;;;;;;;17.90;100.00;102544.97;5020825;28;20069;-69
2023/09/30 10:35:27;;;;;;;8.70;6.00;;;;;;;18.00;100.00;102532.16;5010676;28;20472;-69
2023/09/30 10:38:22;;;;;;;9.38;5.82;;;;;;;18.24;100.00;102524.97;5023418;28;20029;-69
2023/09/30 10:40:48;;;;;;;9.15;5.55;;;;;;;18.44;100.00;102530.72;5022153;28;20045;-69
2023/09/30 10:43:32;;;;;;;11.20;5.45;;;;;;;18.69;100.00;102518.19;5016200;28;20030;-69
2023/09/30 10:45:58;;;;;;;10.25;5.78;;;;;;;18.89;100.00;102520.44;5008534;28;20393;-69
2023/09/30 10:48:34;;;;;;;11.18;5.25;;;;;;;19.03;100.00;102520.75;5009209;28;20022;-69
2023/09/30 10:51:10;;;;;;;8.25;5.45;;;;;;;19.11;100.00;102515.69;5009379;28;20096;-69
2023/09/30 10:53:41;;;;;;;8.02;5.50;;;;;;;19.12;100.00;102517.50;5008503;28;20469;-69
2023/09/30 10:56:06;;;;;;;6.90;4.45;;;;;;;19.28;100.00;102508.22;5010304;28;20017;-69
2023/09/30 10:58:51;;;;;;;8.48;5.00;;;;;;;19.26;100.00;102504.69;5008298;28;20157;-69
2023/09/30 11:01:18;;;;;;;7.88;4.30;;;;;;;19.47;100.00;102507.72;5005815;28;20014;-69
2023/09/30 11:03:45;;;;;;;7.18;4.00;;;;;;;19.63;100.00;102488.78;5010509;28;20119;-70
2023/09/30 11:06:13;;;;;;;8.20;4.35;;;;;;;19.70;100.00;102494.19;5009790;28;20481;-69
2023/09/30 11:08:46;;;;;;;7.82;4.10;;;;;;;19.85;100.00;102499.72;5010313;28;20034;-69
2023/09/30 11:11:11;;;;;;;11.57;4.95;;;;;;;19.76;96.25;102500.44;5010267;28;20025;-69
2023/09/30 11:13:36;;;;;;;9.80;4.47;;;;;;;19.81;96.08;102497.91;5009715;28;20048;-68
2023/09/30 11:16:05;;;;;;;9.10;4.68;;;;;;;19.36;95.19;102497.88;5010078;28;20426;-69
2023/09/30 11:18:31;;;;;;;7.47;4.75;;;;;;;19.13;96.38;102498.25;5021963;28;20359;-69
2023/09/30 11:21:05;;;;;;;11.02;4.80;;;;;;;19.18;100.00;102496.63;5026556;28;20021;-69
2023/09/30 11:23:31;;;;;;;7.32;3.92;;;;;;;19.40;100.00;102506.72;5018263;28;20021;-69
2023/09/30 11:25:56;;;;;;;7.28;4.07;;;;;;;19.39;98.42;102505.81;5008964;28;20037;-69
2023/09/30 11:28:23;;;;;;;8.93;3.95;;;;;;;19.26;94.61;102499.41;5010628;28;20466;-69
2023/09/30 11:30:56;;;;;;;9.63;3.75;;;;;;;19.42;95.19;102490.13;5008303;28;20029;-67
2023/09/30 11:33:24;;;;;;;6.43;3.05;;;;;;;19.51;91.20;102496.41;5016285;28;20034;-69
2023/09/30 11:36:05;;;;;;;6.78;2.95;;;;;;;19.37;87.94;102486.53;5008231;28;20034;-69
2023/09/30 11:38:32;;;;;;;6.45;3.17;;;;;;;19.26;89.00;102482.75;5005409;28;20034;-69
2023/09/30 11:41:07;;;;;;;6.60;3.20;;;;;;;19.08;85.77;102489.34;5002991;28;20064;-69
2023/09/30 11:43:35;;;;;;;9.05;3.65;;;;;;;19.20;93.01;102483.50;5016947;28;20034;-70
2023/09/30 11:46:11;;;;;;;6.13;2.83;;;;;;;19.31;92.10;102481.13;5008909;28;20033;-70